createdAt,value
2023-03-04T00:01:35.564Z,100591.50
2023-03-04T00:04:38.041Z,100596.69
2023-03-04T00:07:40.340Z,100599.56
2023-03-04T00:10:43.627Z,100593.69
2023-03-04T00:13:45.832Z,100596.28
2023-03-04T00:16:49.157Z,100592.19
2023-03-04T00:19:51.478Z,100594.75
2023-03-04T00:22:54.111Z,100593.94
2023-03-04T00:25:56.436Z,100592.28
2023-03-04T00:28:58.964Z,100594.09
2023-03-04T00:32:01.295Z,100590.38
2023-03-04T00:35:05.507Z,100594.53
2023-03-04T00:38:07.667Z,100586.25
2023-03-04T00:41:10.901Z,100585.50
2023-03-04T00:44:13.101Z,100584.84
2023-03-04T00:47:15.558Z,100582.13
2023-03-04T00:50:17.730Z,100583.97
2023-03-04T00:53:21.314Z,100582.31
2023-03-04T00:56:23.460Z,100582.56
2023-03-04T00:59:25.944Z,100583.63
2023-03-04T01:02:29.245Z,100582.78
2023-03-04T01:05:34.237Z,100572.91
2023-03-04T01:08:36.893Z,100574.62
2023-03-04T01:11:39.469Z,100564.84
2023-03-04T01:14:41.649Z,100558.56
2023-03-04T01:17:44.305Z,100560.38
2023-03-04T01:20:46.640Z,100556.06
2023-03-04T01:23:49.169Z,100558.78
2023-03-04T01:26:51.374Z,100557.31
2023-03-04T01:29:53.873Z,100556.66
2023-03-04T01:32:58.187Z,100552.53
2023-03-04T01:36:00.665Z,100556.16
2023-03-04T01:39:03.197Z,100540.50
2023-03-04T01:42:06.528Z,100539.56
2023-03-04T01:45:16.252Z,100535.25
2023-03-04T01:48:24.866Z,100532.06
2023-03-04T01:51:27.297Z,100532.16
2023-03-04T01:54:30.173Z,100533.03
2023-03-04T01:57:35.356Z,100523.41
2023-03-04T02:00:38.944Z,100528.69
2023-03-04T02:03:41.417Z,100519.47
2023-03-04T02:06:44.903Z,100524.63
2023-03-04T02:09:47.516Z,100522.25
2023-03-04T02:12:50.835Z,100519.84
2023-03-04T02:15:53.449Z,100522.22
2023-03-04T02:18:56.062Z,100511.28
2023-03-04T02:21:58.247Z,100508.91
2023-03-04T02:25:05.740Z,100511.53
2023-03-04T02:28:08.268Z,100508.41
2023-03-04T02:31:27.817Z,100489.50
2023-03-04T02:34:34.258Z,100492.97
2023-03-04T02:37:36.771Z,100495.44
2023-03-04T02:40:42.288Z,100494.75
2023-03-04T02:43:47.040Z,100489.62
2023-03-04T02:46:51.089Z,100489.31
2023-03-04T02:49:53.704Z,100487.06
2023-03-04T02:52:57.455Z,100481.91
2023-03-04T02:56:00.668Z,100477.72
2023-03-04T02:59:05.380Z,100472.78
2023-03-04T03:02:09.272Z,100471.81
2023-03-04T03:05:13.097Z,100477.16
2023-03-04T03:08:16.316Z,100472.78
2023-03-04T03:11:18.653Z,100471.00
2023-03-04T03:14:21.369Z,100467.50
2023-03-04T03:17:23.560Z,100465.78
2023-03-04T03:20:26.043Z,100462.25
2023-03-04T03:23:28.267Z,100462.91
2023-03-04T03:26:31.022Z,100456.75
2023-03-04T03:29:33.256Z,100456.66
2023-03-04T03:32:35.753Z,100448.97
2023-03-04T03:35:38.435Z,100453.38
2023-03-04T03:38:40.923Z,100444.72
2023-03-04T03:41:43.114Z,100452.81
2023-03-04T03:44:45.748Z,100446.16
2023-03-04T03:47:47.932Z,100447.09
2023-03-04T03:50:50.562Z,100453.28
2023-03-04T03:53:52.774Z,100447.91
2023-03-04T03:56:55.218Z,100445.25
2023-03-04T03:59:57.420Z,100448.00
2023-03-04T04:03:01.093Z,100446.84
2023-03-04T04:06:03.896Z,100454.19
2023-03-04T04:09:06.129Z,100453.38
2023-03-04T04:12:09.952Z,100452.66
2023-03-04T04:15:12.713Z,100445.88
2023-03-04T04:18:15.200Z,100448.38
2023-03-04T04:21:17.451Z,100454.44
2023-03-04T04:24:19.993Z,100446.84
2023-03-04T04:27:22.730Z,100441.69
2023-03-04T04:30:25.409Z,100446.97
2023-03-04T04:33:27.635Z,100440.87
2023-03-04T04:36:30.249Z,100441.59
2023-03-04T04:39:32.487Z,100439.81
2023-03-04T04:42:35.070Z,100438.72
2023-03-04T04:45:37.286Z,100429.38
2023-03-04T04:48:39.914Z,100431.03
2023-03-04T04:51:42.168Z,100422.53
2023-03-04T04:54:44.635Z,100425.84
2023-03-04T04:57:46.863Z,100431.62
2023-03-04T05:00:49.475Z,100432.00
2023-03-04T05:03:53.269Z,100429.75
2023-03-04T05:06:55.858Z,100431.59
2023-03-04T05:09:58.144Z,100424.41
2023-03-04T05:13:00.632Z,100426.41
2023-03-04T05:16:03.280Z,100428.78
2023-03-04T05:19:05.769Z,100439.97
2023-03-04T05:22:08.263Z,100434.53
2023-03-04T05:25:10.833Z,100434.13
2023-03-04T05:28:13.888Z,100429.41
2023-03-04T05:31:17.882Z,100443.63
2023-03-04T05:34:20.027Z,100439.69
2023-03-04T05:37:22.501Z,100444.84
2023-03-04T05:40:25.764Z,100452.50
2023-03-04T05:43:28.665Z,100444.31
2023-03-04T05:46:33.209Z,100448.19
2023-03-04T05:49:35.993Z,100451.72
2023-03-04T05:52:38.277Z,100457.47
2023-03-04T05:55:40.784Z,100465.22
2023-03-04T05:58:44.270Z,100462.16
2023-03-04T06:01:47.455Z,100457.00
2023-03-04T06:04:49.946Z,100456.94
2023-03-04T06:07:52.380Z,100460.59
2023-03-04T06:10:56.804Z,100460.66
2023-03-04T06:13:59.137Z,100466.03
2023-03-04T06:17:01.680Z,100470.13
2023-03-04T06:20:06.201Z,100468.75
2023-03-04T06:23:08.613Z,100466.25
2023-03-04T06:26:15.405Z,100480.94
2023-03-04T06:29:18.012Z,100473.44
2023-03-04T06:32:20.327Z,100477.87
2023-03-04T06:35:22.866Z,100486.44
2023-03-04T06:38:26.110Z,100484.25
2023-03-04T06:41:28.576Z,100484.75
2023-03-04T06:44:30.770Z,100481.56
2023-03-04T06:47:33.215Z,100483.09
2023-03-04T06:50:35.371Z,100487.59
2023-03-04T06:53:39.362Z,100488.75
2023-03-04T06:56:41.469Z,100489.69
2023-03-04T06:59:43.861Z,100488.03
2023-03-04T07:02:46.035Z,100484.72
2023-03-04T07:05:48.521Z,100484.50
2023-03-04T07:08:51.065Z,100487.09
2023-03-04T07:11:53.530Z,100481.84
2023-03-04T07:14:55.675Z,100491.19
2023-03-04T07:17:58.132Z,100483.75
2023-03-04T07:21:00.600Z,100488.34
2023-03-04T07:24:03.062Z,100486.72
2023-03-04T07:27:05.245Z,100483.88
2023-03-04T07:30:08.473Z,100483.38
2023-03-04T07:33:10.707Z,100482.75
2023-03-04T07:36:14.925Z,100476.44
2023-03-04T07:39:17.253Z,100480.59
2023-03-04T07:42:19.670Z,100482.88
2023-03-04T07:45:26.788Z,100475.91
2023-03-04T07:48:29.411Z,100473.88
2023-03-04T07:51:31.616Z,100467.06
2023-03-04T07:54:34.196Z,100468.97
2023-03-04T07:57:39.413Z,100478.97
2023-03-04T08:00:42.106Z,100475.19
2023-03-04T08:03:45.190Z,100477.13
2023-03-04T08:06:48.793Z,100477.75
2023-03-04T08:09:51.454Z,100481.34
2023-03-04T08:12:53.614Z,100479.38
2023-03-04T08:15:56.874Z,100482.50
2023-03-04T08:19:00.932Z,100472.72
2023-03-04T08:22:03.549Z,100480.69
2023-03-04T08:25:05.982Z,100480.84
2023-03-04T08:28:10.240Z,100474.28
2023-03-04T08:31:17.248Z,100475.81
2023-03-04T08:34:22.968Z,100471.31
2023-03-04T08:37:25.146Z,100480.44
2023-03-04T08:40:27.651Z,100466.00
2023-03-04T08:43:30.705Z,100480.00
2023-03-04T08:46:33.213Z,100465.56
2023-03-04T08:49:35.949Z,100464.53
2023-03-04T08:52:38.402Z,100468.97
2023-03-04T08:55:41.704Z,100469.38
2023-03-04T08:58:44.057Z,100473.12
2023-03-04T09:01:46.551Z,100473.19
2023-03-04T09:04:49.261Z,100465.22
2023-03-04T09:07:51.483Z,100462.91
2023-03-04T09:10:55.156Z,100470.34
2023-03-04T09:13:57.514Z,100467.31
2023-03-04T09:16:59.953Z,100459.16
2023-03-04T09:20:04.429Z,100459.66
2023-03-04T09:23:07.205Z,100447.69
2023-03-04T09:26:22.045Z,100443.00
2023-03-04T09:29:24.829Z,100445.94
2023-03-04T09:32:27.104Z,100438.50
2023-03-04T09:35:32.526Z,100433.91
2023-03-04T09:38:34.722Z,100434.28
2023-03-04T09:41:56.307Z,100433.31
2023-03-04T09:44:59.204Z,100427.13
2023-03-04T09:48:02.124Z,100431.41
2023-03-04T09:51:21.351Z,100432.44
2023-03-04T09:54:52.174Z,100420.19
2023-03-04T09:58:06.890Z,100429.53
2023-03-04T10:01:36.560Z,100411.88
2023-03-04T10:04:51.340Z,100417.91
2023-03-04T10:08:00.670Z,100411.66
2023-03-04T10:11:09.514Z,100398.19
2023-03-04T10:14:33.736Z,100403.37
2023-03-04T10:17:40.039Z,100400.91
2023-03-04T10:21:00.583Z,100390.63
2023-03-04T10:24:17.832Z,100381.59
2023-03-04T10:27:20.030Z,100393.41
2023-03-04T10:30:50.892Z,100379.00
2023-03-04T10:33:53.091Z,100381.94
2023-03-04T10:37:01.533Z,100382.09
2023-03-04T10:40:04.024Z,100381.66
2023-03-04T10:43:14.903Z,100377.78
2023-03-04T10:46:17.281Z,100375.28
2023-03-04T10:49:20.520Z,100361.97
2023-03-04T10:52:32.758Z,100368.75
2023-03-04T10:55:45.390Z,100353.72
2023-03-04T10:58:47.574Z,100350.53
2023-03-04T11:01:54.427Z,100350.97
2023-03-04T11:05:06.565Z,100352.47
2023-03-04T11:08:18.504Z,100345.66
2023-03-04T11:11:42.898Z,100336.78
2023-03-04T11:14:50.964Z,100332.91
2023-03-04T11:18:02.705Z,100324.87
2023-03-04T11:21:06.763Z,100332.97
2023-03-04T11:24:28.434Z,100333.47
2023-03-04T11:27:44.739Z,100320.84
2023-03-04T11:31:00.560Z,100319.38
2023-03-04T11:34:41.478Z,100316.75
2023-03-04T11:38:17.641Z,100321.44
2023-03-04T11:41:35.650Z,100316.69
2023-03-04T11:44:37.817Z,100298.66
2023-03-04T11:48:01.522Z,100301.09
2023-03-04T11:51:13.090Z,100304.59
2023-03-04T11:54:42.335Z,100292.78
2023-03-04T11:57:55.008Z,100287.47
2023-03-04T12:01:10.360Z,100290.72
2023-03-04T12:04:26.105Z,100285.66
2023-03-04T12:07:28.306Z,100281.94
2023-03-04T12:10:47.080Z,100277.28
2023-03-04T12:13:55.447Z,100278.25
2023-03-04T12:16:57.931Z,100261.06
2023-03-04T12:20:23.325Z,100267.06
2023-03-04T12:23:44.935Z,100263.03
2023-03-04T12:27:12.386Z,100247.19
2023-03-04T12:31:03.314Z,100252.56
2023-03-04T12:34:29.663Z,100248.25
2023-03-04T12:37:46.840Z,100246.09
2023-03-04T12:41:29.577Z,100241.34
2023-03-04T12:44:38.952Z,100233.94
2023-03-04T12:47:50.076Z,100225.66
2023-03-04T12:51:03.576Z,100222.94
2023-03-04T12:54:16.878Z,100231.00
2023-03-04T12:57:23.776Z,100216.91
2023-03-04T13:00:38.319Z,100206.09
2023-03-04T13:03:45.941Z,100201.72
2023-03-04T13:07:08.312Z,100213.50
2023-03-04T13:10:23.543Z,100206.16
2023-03-04T13:13:38.536Z,100187.72
2023-03-04T13:16:49.774Z,100189.16
2023-03-04T13:20:17.750Z,100185.38
2023-03-04T13:23:27.976Z,100179.41
2023-03-04T13:26:34.764Z,100180.31
2023-03-04T13:29:38.153Z,100172.56
2023-03-04T13:32:42.675Z,100164.75
2023-03-04T13:35:49.680Z,100155.91
2023-03-04T13:39:22.195Z,100147.66
2023-03-04T13:42:43.357Z,100146.28
2023-03-04T13:45:45.660Z,100140.62
2023-03-04T13:48:51.125Z,100138.97
2023-03-04T13:51:53.620Z,100131.84
2023-03-04T13:55:36.233Z,100129.88
2023-03-04T13:58:39.659Z,100119.94
2023-03-04T14:01:44.871Z,100123.69
2023-03-04T14:04:53.517Z,100113.41
2023-03-04T14:07:55.639Z,100120.53
2023-03-04T14:10:58.103Z,100103.97
2023-03-04T14:14:05.882Z,100120.41
2023-03-04T14:17:18.248Z,100104.78
2023-03-04T14:20:48.361Z,100106.97
2023-03-04T14:24:17.599Z,100108.37
2023-03-04T14:27:19.745Z,100105.09
2023-03-04T14:30:44.462Z,100106.47
2023-03-04T14:33:49.656Z,100110.31
2023-03-04T14:36:52.556Z,100115.63
2023-03-04T14:39:58.680Z,100116.13
2023-03-04T14:43:13.305Z,100108.47
2023-03-04T14:46:18.850Z,100110.34
2023-03-04T14:49:21.574Z,100105.13
2023-03-04T14:52:38.286Z,100102.38
2023-03-04T14:55:54.308Z,100112.75
2023-03-04T14:58:58.550Z,100116.41
2023-03-04T15:02:21.330Z,100112.50
2023-03-04T15:05:26.306Z,100115.00
2023-03-04T15:08:39.193Z,100104.94
2023-03-04T15:11:48.510Z,100103.06
2023-03-04T15:14:54.448Z,100102.69
2023-03-04T15:18:01.937Z,100114.72
2023-03-04T15:21:26.276Z,100115.34
2023-03-04T15:24:28.440Z,100111.28
2023-03-04T15:27:31.368Z,100120.53
2023-03-04T15:30:34.331Z,100116.00
2023-03-04T15:33:39.107Z,100117.97
2023-03-04T15:36:41.713Z,100111.13
2023-03-04T15:39:44.154Z,100101.97
2023-03-04T15:42:46.423Z,100112.97
2023-03-04T15:45:50.402Z,100113.06
2023-03-04T15:48:52.553Z,100112.66
2023-03-04T15:51:55.537Z,100113.56
2023-03-04T15:54:58.803Z,100105.50
2023-03-04T15:58:02.502Z,100104.66
2023-03-04T16:01:05.727Z,100111.75
2023-03-04T16:04:13.165Z,100113.56
2023-03-04T16:07:19.760Z,100115.34
2023-03-04T16:10:26.301Z,100105.13
2023-03-04T16:13:28.540Z,100112.03
2023-03-04T16:16:31.000Z,100107.81
2023-03-04T16:19:33.282Z,100106.88
2023-03-04T16:22:37.519Z,100104.87
2023-03-04T16:25:42.449Z,100103.91
2023-03-04T16:28:45.043Z,100104.53
2023-03-04T16:31:47.189Z,100107.00
2023-03-04T16:34:50.365Z,100103.88
2023-03-04T16:37:52.594Z,100111.03
2023-03-04T16:40:56.780Z,100113.81
2023-03-04T16:44:00.767Z,100112.94
2023-03-04T16:47:05.278Z,100110.91
2023-03-04T16:50:07.836Z,100106.38
2023-03-04T16:53:23.605Z,100098.75
2023-03-04T16:56:25.885Z,100102.84
2023-03-04T16:59:28.976Z,100101.31
2023-03-04T17:02:31.154Z,100106.97
2023-03-04T17:05:33.787Z,100109.62
2023-03-04T17:08:35.980Z,100104.38
2023-03-04T17:11:38.610Z,100102.53
2023-03-04T17:14:40.781Z,100113.28
2023-03-04T17:17:44.430Z,100102.22
2023-03-04T17:20:46.681Z,100100.72
2023-03-04T17:23:49.619Z,100110.72
2023-03-04T17:26:51.868Z,100120.31
2023-03-04T17:29:54.936Z,100117.09
2023-03-04T17:32:57.121Z,100120.84
2023-03-04T17:35:59.580Z,100122.75
2023-03-04T17:39:03.600Z,100130.38
2023-03-04T17:42:06.375Z,100123.34
2023-03-04T17:45:09.245Z,100134.72
2023-03-04T17:48:15.569Z,100122.78
2023-03-04T17:51:17.750Z,100135.00
2023-03-04T17:54:20.270Z,100133.22
2023-03-04T17:57:22.400Z,100143.13
2023-03-04T18:00:25.122Z,100140.03
2023-03-04T18:03:27.565Z,100141.69
2023-03-04T18:06:30.114Z,100149.69
2023-03-04T18:09:32.626Z,100145.91
2023-03-04T18:12:34.808Z,100154.12
2023-03-04T18:15:37.305Z,100153.94
2023-03-04T18:18:39.532Z,100152.44
2023-03-04T18:21:43.662Z,100152.63
2023-03-04T18:24:46.090Z,100154.78
2023-03-04T18:27:48.575Z,100165.91
2023-03-04T18:30:52.051Z,100162.69
2023-03-04T18:33:54.655Z,100163.13
2023-03-04T18:36:56.717Z,100172.66
2023-03-04T18:39:59.303Z,100175.41
2023-03-04T18:43:01.685Z,100180.94
2023-03-04T18:46:19.102Z,100183.81
2023-03-04T18:49:21.698Z,100197.09
2023-03-04T18:52:24.186Z,100198.31
2023-03-04T18:55:26.846Z,100211.56
2023-03-04T18:58:33.261Z,100208.47
2023-03-04T19:01:35.506Z,100212.41
2023-03-04T19:04:38.017Z,100215.25
2023-03-04T19:07:40.186Z,100202.91
2023-03-04T19:10:42.687Z,100213.72
2023-03-04T19:13:45.048Z,100205.16
2023-03-04T19:16:47.504Z,100218.06
2023-03-04T19:19:49.667Z,100230.31
2023-03-04T19:22:52.118Z,100215.12
2023-03-04T19:25:54.398Z,100215.50
2023-03-04T19:28:57.074Z,100219.19
2023-03-04T19:31:59.232Z,100210.69
2023-03-04T19:35:02.182Z,100217.06
2023-03-04T19:38:04.348Z,100215.19
2023-03-04T19:41:12.406Z,100223.44
2023-03-04T19:44:14.794Z,100226.16
2023-03-04T19:47:17.308Z,100217.16
2023-03-04T19:50:19.615Z,100225.22
2023-03-04T19:53:22.300Z,100226.38
2023-03-04T19:56:24.913Z,100228.06
2023-03-04T19:59:27.428Z,100225.53
2023-03-04T20:02:29.567Z,100235.28
2023-03-04T20:05:31.993Z,100222.97
2023-03-04T20:08:37.957Z,100222.28
2023-03-04T20:11:56.557Z,100223.13
2023-03-04T20:14:59.633Z,100227.63
2023-03-04T20:18:02.308Z,100222.81
2023-03-04T20:21:05.389Z,100224.44
2023-03-04T20:24:07.946Z,100230.44
2023-03-04T20:27:14.154Z,100231.38
2023-03-04T20:30:17.130Z,100226.28
2023-03-04T20:33:20.217Z,100228.13
2023-03-04T20:36:25.979Z,100229.03
2023-03-04T20:39:29.958Z,100221.38
2023-03-04T20:42:33.872Z,100232.00
2023-03-04T20:45:38.950Z,100222.16
2023-03-04T20:48:41.418Z,100228.41
2023-03-04T20:51:43.594Z,100236.13
2023-03-04T20:54:46.074Z,100229.53
2023-03-04T20:57:49.454Z,100226.97
2023-03-04T21:00:51.874Z,100226.78
2023-03-04T21:03:54.083Z,100231.09
2023-03-04T21:06:56.829Z,100222.53
2023-03-04T21:09:58.994Z,100219.28
2023-03-04T21:13:01.585Z,100210.50
2023-03-04T21:16:04.900Z,100218.22
2023-03-04T21:19:07.609Z,100233.16
2023-03-04T21:22:18.954Z,100220.69
2023-03-04T21:25:23.095Z,100221.59
2023-03-04T21:28:25.245Z,100223.50
2023-03-04T21:31:33.725Z,100227.25
2023-03-04T21:34:39.180Z,100234.69
2023-03-04T21:37:41.827Z,100235.88
2023-03-04T21:40:44.096Z,100234.31
2023-03-04T21:43:46.912Z,100226.91
2023-03-04T21:46:49.170Z,100231.09
2023-03-04T21:49:51.941Z,100231.31
2023-03-04T21:52:54.186Z,100232.22
2023-03-04T21:55:56.647Z,100239.03
2023-03-04T21:59:00.647Z,100248.00
2023-03-04T22:02:03.380Z,100254.22
2023-03-04T22:05:06.083Z,100256.12
2023-03-04T22:08:08.240Z,100253.28
2023-03-04T22:11:12.351Z,100244.16
2023-03-04T22:14:14.663Z,100253.75
2023-03-04T22:17:17.517Z,100255.47
2023-03-04T22:20:20.309Z,100251.06
2023-03-04T22:23:22.744Z,100248.41
2023-03-04T22:26:31.768Z,100244.94
2023-03-04T22:29:34.366Z,100252.66
2023-03-04T22:32:36.580Z,100249.31
2023-03-04T22:35:40.246Z,100236.63
2023-03-04T22:38:44.541Z,100226.44
2023-03-04T22:41:47.350Z,100227.47
2023-03-04T22:44:49.550Z,100236.81
2023-03-04T22:47:52.618Z,100237.75
2023-03-04T22:50:54.830Z,100237.75
2023-03-04T22:53:57.964Z,100237.94
2023-03-04T22:57:00.276Z,100241.69
2023-03-04T23:00:07.330Z,100243.56
2023-03-04T23:03:10.306Z,100243.00
2023-03-04T23:06:19.215Z,100252.75
2023-03-04T23:09:21.489Z,100249.41
2023-03-04T23:12:24.129Z,100253.91
2023-03-04T23:15:26.652Z,100254.97
2023-03-04T23:18:30.262Z,100258.44
2023-03-04T23:21:33.885Z,100255.22
2023-03-04T23:24:36.831Z,100247.19
2023-03-04T23:27:39.821Z,100263.66
2023-03-04T23:30:42.369Z,100252.34
2023-03-04T23:33:46.476Z,100262.56
2023-03-04T23:36:49.015Z,100267.25
2023-03-04T23:39:51.208Z,100272.53
2023-03-04T23:42:53.707Z,100277.78
2023-03-04T23:45:57.965Z,100276.06
2023-03-04T23:49:00.467Z,100272.06
2023-03-04T23:52:02.649Z,100277.97
2023-03-04T23:55:05.644Z,100279.84
2023-03-04T23:58:07.818Z,100287.09
